createdAt,value
2023-05-19T00:00:59.331Z,1.80
2023-05-19T00:01:59.353Z,1.60
2023-05-19T00:02:59.384Z,2.00
2023-05-19T00:03:59.325Z,1.80
2023-05-19T00:04:59.276Z,1.80
2023-05-19T00:05:59.344Z,1.80
2023-05-19T00:06:59.295Z,1.60
2023-05-19T00:07:59.270Z,1.70
2023-05-19T00:08:59.247Z,1.70
2023-05-19T00:09:59.272Z,1.50
2023-05-19T00:10:59.213Z,1.70
2023-05-19T00:11:59.234Z,1.40
2023-05-19T00:12:59.191Z,1.80
2023-05-19T00:13:59.278Z,1.60
2023-05-19T00:14:59.222Z,1.60
2023-05-19T00:15:59.250Z,1.70
2023-05-19T00:16:59.148Z,1.60
2023-05-19T00:17:59.184Z,1.60
2023-05-19T00:18:59.263Z,1.60
2023-05-19T00:19:59.199Z,2.30
2023-05-19T00:20:59.105Z,1.70
2023-05-19T00:21:59.120Z,1.70
2023-05-19T00:22:59.083Z,1.90
2023-05-19T00:23:59.138Z,1.70
2023-05-19T00:24:59.085Z,1.70
2023-05-19T00:25:59.084Z,1.40
2023-05-19T00:26:59.043Z,1.60
2023-05-19T00:27:59.068Z,1.60
2023-05-19T00:28:59.040Z,1.50
2023-05-19T00:29:59.053Z,1.60
2023-05-19T00:30:59.000Z,1.50
2023-05-19T00:31:59.056Z,1.60
2023-05-19T00:32:59.004Z,1.40
2023-05-19T00:33:58.991Z,1.50
2023-05-19T00:34:58.977Z,1.40
2023-05-19T00:35:58.972Z,1.30
2023-05-19T00:36:58.956Z,1.60
2023-05-19T00:37:58.954Z,1.60
2023-05-19T00:38:58.940Z,1.50
2023-05-19T00:39:58.945Z,1.60
2023-05-19T00:40:58.921Z,1.60
2023-05-19T00:41:58.903Z,1.30
2023-05-19T00:42:58.871Z,1.60
2023-05-19T00:43:58.895Z,1.40
2023-05-19T00:44:58.886Z,1.80
2023-05-19T00:45:58.868Z,1.60
2023-05-19T00:46:58.921Z,1.70
2023-05-19T00:47:58.890Z,1.90
2023-05-19T00:48:58.825Z,1.50
2023-05-19T00:49:58.864Z,1.50
2023-05-19T00:50:58.789Z,1.50
2023-05-19T00:51:58.805Z,1.50
2023-05-19T00:52:58.766Z,1.90
2023-05-19T00:53:58.791Z,1.80
2023-05-19T00:54:58.761Z,1.60
2023-05-19T00:55:58.768Z,1.60
2023-05-19T00:56:58.735Z,1.40
2023-05-19T00:57:58.769Z,1.40
2023-05-19T00:58:58.718Z,1.50
2023-05-19T00:59:58.737Z,1.50
2023-05-19T01:00:58.718Z,1.60
2023-05-19T01:01:58.701Z,1.60
2023-05-19T01:02:58.777Z,1.70
2023-05-19T01:03:58.935Z,1.50
2023-05-19T01:04:58.659Z,1.90
2023-05-19T01:05:58.659Z,1.90
2023-05-19T01:06:58.621Z,1.60
2023-05-19T01:07:58.639Z,1.50
2023-05-19T01:08:58.619Z,1.60
2023-05-19T01:09:58.629Z,1.70
2023-05-19T01:10:58.586Z,1.50
2023-05-19T01:11:58.592Z,1.60
2023-05-19T01:12:58.575Z,1.60
2023-05-19T01:13:58.578Z,1.50
2023-05-19T01:14:58.563Z,1.90
2023-05-19T01:15:58.567Z,1.70
2023-05-19T01:16:58.574Z,1.70
2023-05-19T01:17:58.550Z,1.60
2023-05-19T01:18:58.525Z,1.60
2023-05-19T01:19:58.527Z,1.90
2023-05-19T01:20:58.494Z,1.80
2023-05-19T01:21:58.501Z,1.70
2023-05-19T01:22:58.458Z,1.80
2023-05-19T01:23:58.463Z,1.70
2023-05-19T01:24:58.441Z,1.60
2023-05-19T01:25:58.457Z,1.80
2023-05-19T01:26:58.409Z,1.80
2023-05-19T01:27:58.428Z,1.70
2023-05-19T01:28:58.392Z,1.80
2023-05-19T01:29:58.402Z,1.70
2023-05-19T01:30:58.400Z,1.80
2023-05-19T01:31:58.464Z,1.60
2023-05-19T01:32:58.402Z,1.60
2023-05-19T01:33:58.375Z,1.70
2023-05-19T01:34:58.336Z,1.70
2023-05-19T01:35:58.341Z,1.80
2023-05-19T01:36:58.336Z,1.70
2023-05-19T01:37:58.360Z,1.90
2023-05-19T01:38:58.293Z,1.80
2023-05-19T01:39:58.311Z,1.60
2023-05-19T01:40:58.282Z,1.60
2023-05-19T01:41:58.314Z,1.70
2023-05-19T01:42:58.271Z,1.70
2023-05-19T01:43:58.310Z,1.60
2023-05-19T01:44:58.239Z,1.90
2023-05-19T01:45:58.271Z,1.80
2023-05-19T01:46:58.222Z,1.50
2023-05-19T01:47:58.353Z,2.00
2023-05-19T01:48:58.184Z,1.90
2023-05-19T01:49:58.210Z,2.00
2023-05-19T01:50:58.176Z,1.80
2023-05-19T01:51:58.194Z,1.90
2023-05-19T01:52:58.144Z,1.60
2023-05-19T01:53:58.172Z,1.70
2023-05-19T01:54:58.127Z,2.30
2023-05-19T01:55:58.134Z,2.30
2023-05-19T01:56:58.127Z,1.60
2023-05-19T01:57:58.127Z,1.60
2023-05-19T01:58:58.085Z,1.80
2023-05-19T01:59:58.100Z,1.80
2023-05-19T02:00:58.088Z,1.70
2023-05-19T02:01:58.092Z,1.80
2023-05-19T02:02:58.109Z,1.80
2023-05-19T02:03:58.071Z,1.80
2023-05-19T02:04:58.037Z,1.80
2023-05-19T02:05:58.034Z,1.70
2023-05-19T02:06:58.006Z,1.70
2023-05-19T02:07:58.027Z,1.80
2023-05-19T02:08:57.984Z,2.00
2023-05-19T02:09:57.986Z,2.00
2023-05-19T02:10:57.958Z,1.60
2023-05-19T02:11:57.970Z,1.80
2023-05-19T02:12:57.977Z,1.60
2023-05-19T02:13:57.956Z,1.70
2023-05-19T02:14:57.914Z,1.80
2023-05-19T02:15:57.971Z,1.80
2023-05-19T02:16:57.888Z,1.70
2023-05-19T02:17:57.920Z,1.80
2023-05-19T02:18:57.936Z,1.90
2023-05-19T02:19:57.881Z,1.80
2023-05-19T02:20:57.851Z,1.50
2023-05-19T02:21:57.872Z,1.70
2023-05-19T02:22:57.832Z,1.80
2023-05-19T02:23:57.864Z,1.80
2023-05-19T02:24:57.811Z,1.90
2023-05-19T02:25:57.817Z,1.80
2023-05-19T02:26:57.807Z,1.90
2023-05-19T02:27:57.811Z,2.10
2023-05-19T02:28:57.803Z,1.90
2023-05-19T02:29:57.801Z,2.00
2023-05-19T02:30:57.754Z,1.90
2023-05-19T02:31:57.775Z,2.30
2023-05-19T02:32:57.752Z,2.10
2023-05-19T02:33:57.753Z,2.00
2023-05-19T02:34:57.705Z,1.80
2023-05-19T02:35:57.739Z,1.70
2023-05-19T02:36:57.748Z,1.90
2023-05-19T02:37:57.699Z,2.00
2023-05-19T02:38:57.687Z,1.80
2023-05-19T02:39:57.721Z,1.90
2023-05-19T02:40:57.641Z,1.80
2023-05-19T02:41:57.656Z,2.00
2023-05-19T02:42:57.671Z,2.10
2023-05-19T02:43:57.705Z,1.70
2023-05-19T02:44:57.614Z,2.10
2023-05-19T02:45:57.660Z,1.90
2023-05-19T02:46:57.612Z,1.90
2023-05-19T02:47:57.643Z,1.80
2023-05-19T02:48:57.583Z,1.70
2023-05-19T02:49:57.583Z,1.80
2023-05-19T02:50:57.542Z,2.00
2023-05-19T02:51:57.568Z,2.00
2023-05-19T02:52:57.513Z,1.80
2023-05-19T02:53:57.556Z,1.70
2023-05-19T02:54:57.488Z,1.90
2023-05-19T02:55:57.508Z,1.80
2023-05-19T02:56:57.484Z,1.80
2023-05-19T02:57:57.483Z,1.60
2023-05-19T02:58:57.470Z,2.00
2023-05-19T02:59:57.459Z,2.00
2023-05-19T03:00:57.428Z,2.00
2023-05-19T03:01:57.496Z,1.80
2023-05-19T03:02:57.504Z,2.00
2023-05-19T03:03:57.451Z,1.60
2023-05-19T03:04:57.390Z,2.10
2023-05-19T03:05:57.399Z,1.90
2023-05-19T03:06:57.384Z,1.90
2023-05-19T03:07:57.396Z,1.70
2023-05-19T03:08:57.357Z,1.80
2023-05-19T03:09:57.364Z,1.90
2023-05-19T03:10:57.323Z,1.70
2023-05-19T03:11:57.343Z,2.00
2023-05-19T03:12:57.305Z,1.80
2023-05-19T03:13:57.327Z,2.00
2023-05-19T03:14:57.285Z,1.90
2023-05-19T03:15:57.342Z,1.90
2023-05-19T03:16:57.366Z,2.00
2023-05-19T03:17:57.399Z,2.00
2023-05-19T03:18:57.377Z,1.80
2023-05-19T03:19:57.266Z,1.80
2023-05-19T03:20:57.218Z,1.80
2023-05-19T03:21:57.232Z,1.90
2023-05-19T03:22:57.208Z,1.90
2023-05-19T03:23:57.221Z,1.80
2023-05-19T03:24:57.220Z,1.80
2023-05-19T03:25:57.162Z,1.80
2023-05-19T03:26:57.186Z,1.80
2023-05-19T03:27:57.148Z,1.70
2023-05-19T03:28:57.181Z,1.60
2023-05-19T03:29:57.135Z,1.80
2023-05-19T03:30:57.161Z,1.90
2023-05-19T03:31:57.107Z,2.00
2023-05-19T03:32:57.264Z,1.80
2023-05-19T03:33:57.096Z,1.80
2023-05-19T03:34:57.112Z,2.00
2023-05-19T03:35:57.094Z,1.70
2023-05-19T03:36:57.104Z,1.90
2023-05-19T03:37:57.038Z,2.00
2023-05-19T03:38:57.052Z,1.70
2023-05-19T03:39:57.014Z,1.80
2023-05-19T03:40:57.027Z,1.70
2023-05-19T03:41:56.994Z,1.90
2023-05-19T03:42:57.016Z,1.80
2023-05-19T03:43:56.967Z,1.90
2023-05-19T03:44:56.978Z,1.90
2023-05-19T03:45:56.955Z,1.90
2023-05-19T03:46:56.970Z,1.70
2023-05-19T03:47:56.956Z,1.80
2023-05-19T03:48:56.959Z,2.10
2023-05-19T03:49:56.942Z,1.80
2023-05-19T03:50:56.932Z,2.00
2023-05-19T03:51:56.881Z,1.70
2023-05-19T03:52:56.904Z,1.80
2023-05-19T03:53:56.856Z,1.70
2023-05-19T03:54:56.896Z,1.80
2023-05-19T03:56:02.901Z,1.90
2023-05-19T03:56:56.859Z,1.60
2023-05-19T03:57:56.818Z,1.90
2023-05-19T03:58:58.497Z,1.70
2023-05-19T03:59:56.799Z,1.80
2023-05-19T04:00:57.322Z,1.70
2023-05-19T04:01:56.816Z,2.20
2023-05-19T04:02:56.914Z,1.90
2023-05-19T04:03:56.783Z,2.00
2023-05-19T04:04:56.837Z,2.00
2023-05-19T04:05:56.728Z,2.10
2023-05-19T04:06:56.794Z,1.80
2023-05-19T04:07:56.712Z,1.60
2023-05-19T04:08:56.729Z,1.90
2023-05-19T04:09:56.684Z,1.80
2023-05-19T04:10:56.692Z,2.30
2023-05-19T04:11:56.662Z,1.80
2023-05-19T04:12:56.708Z,2.00
2023-05-19T04:13:56.660Z,1.90
2023-05-19T04:14:56.669Z,1.80
2023-05-19T04:15:56.655Z,1.90
2023-05-19T04:16:56.634Z,1.80
2023-05-19T04:17:56.664Z,1.70
2023-05-19T04:18:56.669Z,1.90
2023-05-19T04:19:56.580Z,1.90
2023-05-19T04:20:56.594Z,1.70
2023-05-19T04:21:56.552Z,1.70
2023-05-19T04:22:56.581Z,1.70
2023-05-19T04:23:56.529Z,1.90
2023-05-19T04:24:56.568Z,1.80
2023-05-19T04:25:56.516Z,1.80
2023-05-19T04:26:56.533Z,1.90
2023-05-19T04:27:56.492Z,2.10
2023-05-19T04:28:56.514Z,1.80
2023-05-19T04:29:56.521Z,1.80
2023-05-19T04:30:56.548Z,1.80
2023-05-19T04:31:56.454Z,1.80
2023-05-19T04:32:56.516Z,2.50
2023-05-19T04:33:56.456Z,2.50
2023-05-19T04:34:56.450Z,2.10
2023-05-19T04:35:56.406Z,2.00
2023-05-19T04:36:56.454Z,1.90
2023-05-19T04:37:56.390Z,1.90
2023-05-19T04:38:56.408Z,1.90
2023-05-19T04:39:56.392Z,2.00
2023-05-19T04:40:56.391Z,2.20
2023-05-19T04:41:56.342Z,2.00
2023-05-19T04:42:56.393Z,2.00
2023-05-19T04:43:56.323Z,2.10
2023-05-19T04:44:56.342Z,2.10
2023-05-19T04:45:56.312Z,2.20
2023-05-19T04:46:56.348Z,1.90
2023-05-19T04:47:56.314Z,1.80
2023-05-19T04:48:56.326Z,1.90
2023-05-19T04:49:56.269Z,2.10
2023-05-19T04:50:56.278Z,1.80
2023-05-19T04:51:56.243Z,2.10
2023-05-19T04:52:56.271Z,1.80
2023-05-19T04:53:56.229Z,1.80
2023-05-19T04:54:56.269Z,2.20
2023-05-19T04:55:56.210Z,2.00
2023-05-19T04:56:56.216Z,2.00
2023-05-19T04:57:56.190Z,2.20
2023-05-19T04:58:56.197Z,2.30
2023-05-19T04:59:56.164Z,2.10
2023-05-19T05:00:56.236Z,2.00
2023-05-19T05:01:56.230Z,1.90
2023-05-19T05:02:56.298Z,1.90
2023-05-19T05:03:56.177Z,2.20
2023-05-19T05:04:56.137Z,2.00
2023-05-19T05:05:56.094Z,2.20
2023-05-19T05:06:56.146Z,2.10
2023-05-19T05:07:56.070Z,2.10
2023-05-19T05:08:56.085Z,1.90
2023-05-19T05:09:56.050Z,2.20
2023-05-19T05:10:56.061Z,2.20
2023-05-19T05:11:56.025Z,2.40
2023-05-19T05:12:56.081Z,2.40
2023-05-19T05:13:56.023Z,2.10
2023-05-19T05:14:56.017Z,2.10
2023-05-19T05:15:56.018Z,2.10
2023-05-19T05:16:56.006Z,2.10
2023-05-19T05:17:55.996Z,2.20
2023-05-19T05:18:56.162Z,2.10
2023-05-19T05:19:55.946Z,2.30
2023-05-19T05:20:55.978Z,2.40
2023-05-19T05:21:55.921Z,2.10
2023-05-19T05:22:55.935Z,2.00
2023-05-19T05:23:55.905Z,2.10
2023-05-19T05:24:55.983Z,2.10
2023-05-19T05:25:55.900Z,2.20
2023-05-19T05:26:55.891Z,2.40
2023-05-19T05:27:55.859Z,2.20
2023-05-19T05:28:55.874Z,2.20
2023-05-19T05:29:58.624Z,2.30
2023-05-19T05:30:55.875Z,2.10
2023-05-19T05:31:55.865Z,2.30
2023-05-19T05:32:55.956Z,2.10
2023-05-19T05:33:55.789Z,2.10
2023-05-19T05:34:55.809Z,2.30
2023-05-19T05:35:55.770Z,2.10
2023-05-19T05:36:55.797Z,2.30
2023-05-19T05:37:55.756Z,2.50
2023-05-19T05:38:55.761Z,2.30
2023-05-19T05:39:55.732Z,2.40
2023-05-19T05:40:55.743Z,2.10
2023-05-19T05:41:55.707Z,1.90
2023-05-19T05:42:55.752Z,2.20
2023-05-19T05:43:55.690Z,2.10
2023-05-19T05:44:55.716Z,2.10
2023-05-19T05:45:55.737Z,2.20
2023-05-19T05:46:55.683Z,2.20
2023-05-19T05:47:55.700Z,2.30
2023-05-19T05:48:55.690Z,2.30
2023-05-19T05:49:55.643Z,2.20
2023-05-19T05:50:55.650Z,2.20
2023-05-19T05:52:05.758Z,2.40
2023-05-19T05:52:55.622Z,2.20
2023-05-19T05:53:55.592Z,2.20
2023-05-19T05:54:55.637Z,2.00
2023-05-19T05:55:55.634Z,2.00
2023-05-19T05:56:55.660Z,2.10
2023-05-19T05:57:55.548Z,2.20
2023-05-19T05:58:55.564Z,2.00
2023-05-19T05:59:55.522Z,1.90
2023-05-19T06:00:55.565Z,2.40
2023-05-19T06:01:55.546Z,2.10
2023-05-19T06:02:55.601Z,2.20
2023-05-19T06:03:55.500Z,1.80
2023-05-19T06:04:55.524Z,2.10
2023-05-19T06:05:55.601Z,2.10
2023-05-19T06:06:55.590Z,2.30
2023-05-19T06:07:55.442Z,2.10
2023-05-19T06:08:55.452Z,2.00
2023-05-19T06:09:55.438Z,2.00
2023-05-19T06:10:55.439Z,2.10
2023-05-19T06:11:55.402Z,1.90
2023-05-19T06:12:55.439Z,2.00
2023-05-19T06:13:55.386Z,2.00
2023-05-19T06:14:55.394Z,2.10
2023-05-19T06:15:55.412Z,2.00
2023-05-19T06:16:55.371Z,2.00
2023-05-19T06:17:55.353Z,2.20
2023-05-19T06:18:55.404Z,2.00
2023-05-19T06:19:55.308Z,2.10
2023-05-19T06:20:55.332Z,2.20
2023-05-19T06:21:55.294Z,2.00
2023-05-19T06:22:55.311Z,2.00
2023-05-19T06:23:55.276Z,1.90
2023-05-19T06:24:55.300Z,2.30
2023-05-19T06:25:55.257Z,2.10
2023-05-19T06:26:55.272Z,2.00
2023-05-19T06:27:55.240Z,2.20
2023-05-19T06:28:55.241Z,2.00
2023-05-19T06:29:55.221Z,1.90
2023-05-19T06:30:55.353Z,2.20
2023-05-19T06:31:55.195Z,2.40
2023-05-19T06:32:55.258Z,2.00
2023-05-19T06:33:55.172Z,1.90
2023-05-19T06:34:55.189Z,1.90
2023-05-19T06:35:55.147Z,2.10
2023-05-19T06:36:55.155Z,1.80
2023-05-19T06:37:55.125Z,2.00
2023-05-19T06:38:55.160Z,2.00
2023-05-19T06:39:55.139Z,2.10
2023-05-19T06:40:55.122Z,2.10
2023-05-19T06:41:55.078Z,2.00
2023-05-19T06:42:55.098Z,1.90
2023-05-19T06:43:55.054Z,2.00
2023-05-19T06:44:55.095Z,1.80
2023-05-19T06:45:55.040Z,1.80
2023-05-19T06:46:55.080Z,1.70
2023-05-19T06:47:55.077Z,1.80
2023-05-19T06:48:55.036Z,2.00
2023-05-19T06:49:55.717Z,1.80
2023-05-19T06:50:55.014Z,1.80
2023-05-19T06:51:54.980Z,1.90
2023-05-19T06:52:54.983Z,1.80
2023-05-19T06:53:54.950Z,1.90
2023-05-19T06:54:54.966Z,1.80
2023-05-19T06:55:59.821Z,1.70
2023-05-19T06:56:54.943Z,1.80
2023-05-19T06:57:54.909Z,1.60
2023-05-19T06:58:54.918Z,1.60
2023-05-19T06:59:54.897Z,1.50
2023-05-19T07:00:54.894Z,1.50
2023-05-19T07:01:54.890Z,1.70
2023-05-19T07:02:54.922Z,1.60
2023-05-19T07:03:54.930Z,1.40
2023-05-19T07:04:54.878Z,1.40
2023-05-19T07:05:54.823Z,1.30
2023-05-19T07:06:54.833Z,1.50
2023-05-19T07:07:54.805Z,1.50
2023-05-19T07:08:54.810Z,1.40
2023-05-19T07:09:54.781Z,1.30
2023-05-19T07:10:54.811Z,1.40
2023-05-19T07:11:54.759Z,1.40
2023-05-19T07:12:54.768Z,1.60
2023-05-19T07:13:54.745Z,1.60
2023-05-19T07:14:54.751Z,1.40
2023-05-19T07:15:54.766Z,1.30
2023-05-19T07:16:54.862Z,1.40
2023-05-19T07:17:54.741Z,1.60
2023-05-19T07:18:54.726Z,1.80
2023-05-19T07:19:54.681Z,1.60
2023-05-19T07:20:54.742Z,1.60
2023-05-19T07:21:54.674Z,1.30
2023-05-19T07:22:54.670Z,1.60
2023-05-19T07:23:54.650Z,1.50
2023-05-19T07:24:54.651Z,1.60
2023-05-19T07:25:54.630Z,1.50
2023-05-19T07:26:54.634Z,1.50
2023-05-19T07:27:54.598Z,1.40
2023-05-19T07:28:54.605Z,1.40
2023-05-19T07:29:54.575Z,1.20
2023-05-19T07:30:54.609Z,1.70
2023-05-19T07:31:54.622Z,1.40
2023-05-19T07:32:54.580Z,1.60
2023-05-19T07:33:54.904Z,1.60
2023-05-19T07:34:54.547Z,1.30
2023-05-19T07:35:54.531Z,1.40
2023-05-19T07:36:54.530Z,1.50
2023-05-19T07:37:54.525Z,1.70
2023-05-19T07:38:54.539Z,1.50
2023-05-19T07:39:54.505Z,1.30
2023-05-19T07:40:54.481Z,1.30
2023-05-19T07:41:54.480Z,1.60
2023-05-19T07:42:54.447Z,1.50
2023-05-19T07:43:54.462Z,1.60
2023-05-19T07:44:54.420Z,1.50
2023-05-19T07:45:54.491Z,1.40
2023-05-19T07:46:54.404Z,1.90
2023-05-19T07:47:54.460Z,1.60
2023-05-19T07:48:54.385Z,1.40
2023-05-19T07:49:54.410Z,1.30
2023-05-19T07:50:54.385Z,1.60
2023-05-19T07:51:54.376Z,1.30
2023-05-19T07:52:54.347Z,1.50
2023-05-19T07:53:54.352Z,1.70
2023-05-19T07:54:54.339Z,1.50
2023-05-19T07:55:55.471Z,1.60
2023-05-19T07:56:54.306Z,1.40
2023-05-19T07:57:54.334Z,1.40
2023-05-19T07:58:54.281Z,1.60
2023-05-19T07:59:54.292Z,1.50
2023-05-19T08:00:54.288Z,1.60
2023-05-19T08:01:54.272Z,1.40
2023-05-19T08:02:54.299Z,1.50
2023-05-19T08:03:54.396Z,1.50
2023-05-19T08:04:54.399Z,1.60
2023-05-19T08:05:54.248Z,1.50
2023-05-19T08:06:54.203Z,1.60
2023-05-19T08:07:54.203Z,1.70
2023-05-19T08:08:54.208Z,1.60
2023-05-19T08:09:54.181Z,1.50
2023-05-19T08:10:54.205Z,1.40
2023-05-19T08:11:54.163Z,1.40
2023-05-19T08:12:54.134Z,1.30
2023-05-19T08:13:54.163Z,1.30
2023-05-19T08:14:54.109Z,1.30
2023-05-19T08:15:54.165Z,1.50
2023-05-19T08:16:54.087Z,1.60
2023-05-19T08:17:54.118Z,1.50
2023-05-19T08:18:54.119Z,1.30
2023-05-19T08:19:54.079Z,1.50
2023-05-19T08:20:54.071Z,1.70
2023-05-19T08:21:54.061Z,1.50
2023-05-19T08:22:54.035Z,1.20
2023-05-19T08:23:54.038Z,1.40
2023-05-19T08:24:54.006Z,1.50
2023-05-19T08:25:54.055Z,1.60
2023-05-19T08:26:53.986Z,1.60
2023-05-19T08:27:53.996Z,1.30
2023-05-19T08:28:53.963Z,1.50
2023-05-19T08:29:53.977Z,1.40
2023-05-19T08:30:53.973Z,1.40
2023-05-19T08:31:54.136Z,1.30
2023-05-19T08:32:53.937Z,1.50
2023-05-19T08:33:53.932Z,1.70
2023-05-19T08:34:53.897Z,1.50
2023-05-19T08:35:53.922Z,1.30
2023-05-19T08:36:53.886Z,1.50
2023-05-19T08:37:53.881Z,1.60
2023-05-19T08:38:53.845Z,1.50
2023-05-19T08:39:53.858Z,1.20
2023-05-19T08:40:53.849Z,1.40
2023-05-19T08:41:53.836Z,1.40
2023-05-19T08:42:53.803Z,1.60
2023-05-19T08:43:53.826Z,1.60
2023-05-19T08:44:53.791Z,1.30
2023-05-19T08:45:53.808Z,1.50
2023-05-19T08:46:53.800Z,1.50
2023-05-19T08:47:53.800Z,1.30
2023-05-19T08:48:53.738Z,1.60
2023-05-19T08:49:53.743Z,1.20
2023-05-19T08:50:53.724Z,1.20
2023-05-19T08:51:53.730Z,1.40
2023-05-19T08:52:53.753Z,1.50
2023-05-19T08:53:53.708Z,1.60
2023-05-19T08:54:53.690Z,1.60
2023-05-19T08:55:53.677Z,1.30
2023-05-19T08:56:53.690Z,1.40
2023-05-19T08:57:53.655Z,1.30
2023-05-19T08:58:53.623Z,1.30
2023-05-19T08:59:53.641Z,1.40
2023-05-19T09:00:53.661Z,1.20
2023-05-19T09:01:53.629Z,1.50
2023-05-19T09:03:00.898Z,1.40
2023-05-19T09:03:53.651Z,1.50
2023-05-19T09:04:53.681Z,1.50
2023-05-19T09:05:53.619Z,1.30
2023-05-19T09:06:53.534Z,1.40
2023-05-19T09:07:53.582Z,1.50
2023-05-19T09:08:53.541Z,1.20
2023-05-19T09:09:53.526Z,1.40
2023-05-19T09:10:53.506Z,1.30
2023-05-19T09:11:53.502Z,1.40
2023-05-19T09:12:53.471Z,1.40
2023-05-19T09:13:53.477Z,1.30
2023-05-19T09:14:53.475Z,1.70
2023-05-19T09:15:53.471Z,1.40
2023-05-19T09:16:53.524Z,1.70
2023-05-19T09:17:53.458Z,1.60
2023-05-19T09:18:53.417Z,1.40
2023-05-19T09:19:53.416Z,1.40
2023-05-19T09:20:53.402Z,1.50
2023-05-19T09:21:53.400Z,1.50
2023-05-19T09:22:53.350Z,1.70
2023-05-19T09:23:53.360Z,1.40
2023-05-19T09:24:53.323Z,1.40
2023-05-19T09:25:53.384Z,1.20
2023-05-19T09:26:53.345Z,1.40
2023-05-19T09:27:53.322Z,1.40
2023-05-19T09:28:53.297Z,1.60
2023-05-19T09:29:53.285Z,1.40
2023-05-19T09:30:53.258Z,1.30
2023-05-19T09:31:53.275Z,1.30
2023-05-19T09:32:53.365Z,1.50
2023-05-19T09:33:53.259Z,1.50
2023-05-19T09:34:53.221Z,1.40
2023-05-19T09:35:53.240Z,1.40
2023-05-19T09:36:53.464Z,1.30
2023-05-19T09:37:53.216Z,1.40
2023-05-19T09:38:53.205Z,1.40
2023-05-19T09:39:53.183Z,1.30
2023-05-19T09:40:53.161Z,1.40
2023-05-19T09:41:53.159Z,1.40
2023-05-19T09:42:53.122Z,1.20
2023-05-19T09:43:53.137Z,1.20
2023-05-19T09:44:53.127Z,1.20
2023-05-19T09:45:53.146Z,1.60
2023-05-19T09:46:53.092Z,1.30
2023-05-19T09:47:53.167Z,1.30
2023-05-19T09:48:53.054Z,1.30
2023-05-19T09:49:53.077Z,1.20
2023-05-19T09:50:53.075Z,1.40
2023-05-19T09:51:53.045Z,1.40
2023-05-19T09:52:53.018Z,1.20
2023-05-19T09:53:53.031Z,1.50
2023-05-19T09:54:53.020Z,1.50
2023-05-19T09:55:53.024Z,1.50
2023-05-19T09:56:53.018Z,1.40
2023-05-19T09:57:53.001Z,1.50
2023-05-19T09:58:52.952Z,1.60
2023-05-19T09:59:52.962Z,1.50
2023-05-19T10:00:52.937Z,1.30
2023-05-19T10:01:53.036Z,1.40
2023-05-19T10:02:53.128Z,1.40
2023-05-19T10:03:53.010Z,1.30
2023-05-19T10:04:52.886Z,1.30
2023-05-19T10:05:52.956Z,1.40
2023-05-19T10:06:52.866Z,1.40
2023-05-19T10:07:52.912Z,1.30
2023-05-19T10:08:52.859Z,1.30
2023-05-19T10:09:52.855Z,1.50
2023-05-19T10:10:52.816Z,1.20
2023-05-19T10:11:52.917Z,1.10
2023-05-19T10:12:52.810Z,1.10
2023-05-19T10:13:52.802Z,1.20
2023-05-19T10:14:52.792Z,1.40
2023-05-19T10:15:58.922Z,1.40
2023-05-19T10:16:52.789Z,1.40
2023-05-19T10:17:52.821Z,1.30
2023-05-19T10:18:52.797Z,1.20
2023-05-19T10:19:52.752Z,1.40
2023-05-19T10:20:52.733Z,1.40
2023-05-19T10:21:52.736Z,1.40
2023-05-19T10:22:52.689Z,1.30
2023-05-19T10:23:52.770Z,1.30
2023-05-19T10:24:52.674Z,1.30
2023-05-19T10:25:52.698Z,1.30
2023-05-19T10:26:52.657Z,1.30
2023-05-19T10:27:52.655Z,1.50
2023-05-19T10:28:52.622Z,1.30
2023-05-19T10:29:52.653Z,1.40
2023-05-19T10:30:52.594Z,1.40
2023-05-19T10:31:52.706Z,1.50
2023-05-19T10:32:52.615Z,1.40
2023-05-19T10:33:52.612Z,1.10
2023-05-19T10:34:52.555Z,1.10
2023-05-19T10:35:52.575Z,1.20
2023-05-19T10:36:52.535Z,1.40
2023-05-19T10:37:52.571Z,1.30
2023-05-19T10:38:52.533Z,1.10
2023-05-19T10:39:52.516Z,1.20
2023-05-19T10:40:52.483Z,1.40
2023-05-19T10:41:52.510Z,1.30
2023-05-19T10:42:52.474Z,1.10
2023-05-19T10:43:52.466Z,1.40
2023-05-19T10:44:52.474Z,1.30
2023-05-19T10:45:52.454Z,1.20
2023-05-19T10:46:54.132Z,1.30
2023-05-19T10:47:52.509Z,1.30
2023-05-19T10:48:52.393Z,1.40
2023-05-19T10:49:52.413Z,1.40
2023-05-19T10:50:52.395Z,1.20
2023-05-19T10:51:52.443Z,1.00
2023-05-19T10:52:52.357Z,1.30
2023-05-19T10:53:52.362Z,1.10
2023-05-19T10:54:52.346Z,1.20
2023-05-19T10:55:52.351Z,1.30
2023-05-19T10:56:52.322Z,1.40
2023-05-19T10:57:52.324Z,1.30
2023-05-19T10:58:52.334Z,1.30
2023-05-19T10:59:52.351Z,1.30
2023-05-19T11:00:52.262Z,1.60
2023-05-19T11:01:52.348Z,1.10
2023-05-19T11:02:52.297Z,1.20
2023-05-19T11:03:52.406Z,1.20
2023-05-19T11:04:52.366Z,1.30
2023-05-19T11:05:52.269Z,1.30
2023-05-19T11:06:52.194Z,1.20
2023-05-19T11:07:52.200Z,1.30
2023-05-19T11:08:52.189Z,1.30
2023-05-19T11:09:52.180Z,1.30
2023-05-19T11:10:52.156Z,1.40
2023-05-19T11:11:52.160Z,1.30
2023-05-19T11:12:52.299Z,1.20
2023-05-19T11:13:52.142Z,1.10
2023-05-19T11:14:52.151Z,1.30
2023-05-19T11:15:52.112Z,1.20
2023-05-19T11:16:52.169Z,1.30
2023-05-19T11:17:52.136Z,1.30
2023-05-19T11:18:52.093Z,1.40
2023-05-19T11:19:52.082Z,1.20
2023-05-19T11:20:52.112Z,1.30
2023-05-19T11:21:52.044Z,1.30
2023-05-19T11:22:52.036Z,1.30
2023-05-19T11:23:52.071Z,1.30
2023-05-19T11:24:52.010Z,1.30
2023-05-19T11:25:52.044Z,1.30
2023-05-19T11:26:52.022Z,1.30
2023-05-19T11:27:51.987Z,1.40
2023-05-19T11:28:51.948Z,1.50
2023-05-19T11:29:52.051Z,1.40
2023-05-19T11:30:52.483Z,1.20
2023-05-19T11:31:52.024Z,1.20
2023-05-19T11:32:51.977Z,1.40
2023-05-19T11:33:51.925Z,1.40
2023-05-19T11:34:51.901Z,1.20
2023-05-19T11:35:51.917Z,1.30
2023-05-19T11:36:51.881Z,1.20
2023-05-19T11:37:51.887Z,1.10
2023-05-19T11:38:51.886Z,1.30
2023-05-19T11:39:51.858Z,1.50
2023-05-19T11:40:51.820Z,1.40
2023-05-19T11:41:51.834Z,1.20
2023-05-19T11:42:51.810Z,1.20
2023-05-19T11:43:51.823Z,1.30
2023-05-19T11:44:51.828Z,1.30
2023-05-19T11:45:51.822Z,1.20
2023-05-19T11:46:51.807Z,1.30
2023-05-19T11:48:02.088Z,1.30
2023-05-19T11:48:51.751Z,1.40
2023-05-19T11:49:51.760Z,1.20
2023-05-19T11:50:51.751Z,1.30
2023-05-19T11:51:51.726Z,1.20
2023-05-19T11:52:51.707Z,1.20
2023-05-19T11:53:51.703Z,1.40
2023-05-19T11:54:51.695Z,1.40
2023-05-19T11:55:51.991Z,1.30
2023-05-19T11:56:51.712Z,1.30
2023-05-19T11:58:02.722Z,1.40
2023-05-19T11:58:51.661Z,1.40
2023-05-19T11:59:51.627Z,1.20
2023-05-19T12:00:51.654Z,1.30
2023-05-19T12:01:51.602Z,1.20
2023-05-19T12:02:51.722Z,1.20
2023-05-19T12:03:51.696Z,1.30
2023-05-19T12:04:51.634Z,1.20
2023-05-19T12:05:51.708Z,1.10
2023-05-19T12:06:51.561Z,1.30
2023-05-19T12:07:51.537Z,1.30
2023-05-19T12:08:51.555Z,1.50
2023-05-19T12:09:51.509Z,1.20
2023-05-19T12:10:51.536Z,1.30
2023-05-19T12:11:51.483Z,1.40
2023-05-19T12:12:51.513Z,1.20
2023-05-19T12:13:51.474Z,1.40
2023-05-19T12:14:51.523Z,1.10
2023-05-19T12:15:51.477Z,1.30
2023-05-19T12:16:51.572Z,1.20
2023-05-19T12:17:51.498Z,1.40
2023-05-19T12:18:51.483Z,1.40
2023-05-19T12:19:51.411Z,1.10
2023-05-19T12:20:51.455Z,1.10
2023-05-19T12:21:51.393Z,1.20
2023-05-19T12:22:51.396Z,1.30
2023-05-19T12:23:51.368Z,1.30
2023-05-19T12:24:51.370Z,1.20
2023-05-19T12:25:51.348Z,1.30
2023-05-19T12:26:51.386Z,1.20
2023-05-19T12:27:51.323Z,1.40
2023-05-19T12:28:51.365Z,1.20
2023-05-19T12:29:51.312Z,1.40
2023-05-19T12:30:51.312Z,1.20
2023-05-19T12:31:51.311Z,1.40
2023-05-19T12:32:51.330Z,1.50
2023-05-19T12:33:51.292Z,1.30
2023-05-19T12:34:51.276Z,1.30
2023-05-19T12:35:51.233Z,1.40
2023-05-19T12:36:51.250Z,1.20
2023-05-19T12:37:51.212Z,1.80
2023-05-19T12:38:51.246Z,1.40
2023-05-19T12:39:51.209Z,1.40
2023-05-19T12:40:51.242Z,1.20
2023-05-19T12:41:51.163Z,1.40
2023-05-19T12:42:51.182Z,1.40
2023-05-19T12:43:51.193Z,1.30
2023-05-19T12:44:51.192Z,1.40
2023-05-19T12:45:51.168Z,1.30
2023-05-19T12:46:51.171Z,1.50
2023-05-19T12:47:51.170Z,1.10
2023-05-19T12:48:51.129Z,1.40
2023-05-19T12:49:51.081Z,1.40
2023-05-19T12:50:51.124Z,1.30
2023-05-19T12:51:51.071Z,1.50
2023-05-19T12:52:51.080Z,1.60
2023-05-19T12:53:51.103Z,1.40
2023-05-19T12:54:51.089Z,1.50
2023-05-19T12:55:51.018Z,1.20
2023-05-19T12:56:51.050Z,1.40
2023-05-19T12:57:50.999Z,1.50
2023-05-19T12:58:51.040Z,1.30
2023-05-19T12:59:50.975Z,1.10
2023-05-19T13:00:51.087Z,1.20
2023-05-19T13:01:50.973Z,1.10
2023-05-19T13:02:51.064Z,1.30
2023-05-19T13:03:51.187Z,1.20
2023-05-19T13:04:50.960Z,1.20
2023-05-19T13:05:50.951Z,1.20
2023-05-19T13:06:50.966Z,1.60
2023-05-19T13:07:50.899Z,1.20
2023-05-19T13:08:50.937Z,1.10
2023-05-19T13:09:50.895Z,1.30
2023-05-19T13:10:50.902Z,1.30
2023-05-19T13:11:50.861Z,1.40
2023-05-19T13:12:50.866Z,1.10
2023-05-19T13:13:50.872Z,1.20
2023-05-19T13:14:51.643Z,1.20
2023-05-19T13:15:50.864Z,1.20
2023-05-19T13:16:50.875Z,1.60
2023-05-19T13:17:50.837Z,1.40
2023-05-19T13:18:51.285Z,1.10